sensor_id;sensor_type;location;lat;lon;timestamp;temperature;humidity
11577;DHT22;5844;51.496;6.788;2023-04-15T00:00:26;8.80;1.00
11577;DHT22;5844;51.496;6.788;2023-04-15T00:02:53;8.80;1.00
11577;DHT22;5844;51.496;6.788;2023-04-15T00:05:19;8.90;1.00
11577;DHT22;5844;51.496;6.788;2023-04-15T00:07:45;8.80;1.00
11577;DHT22;5844;51.496;6.788;2023-04-15T00:10:12;8.80;1.00
11577;DHT22;5844;51.496;6.788;2023-04-15T00:12:37;8.70;1.00
11577;DHT22;5844;51.496;6.788;2023-04-15T00:15:03;8.70;1.00
11577;DHT22;5844;51.496;6.788;2023-04-15T00:17:29;8.70;1.00
11577;DHT22;5844;51.496;6.788;2023-04-15T00:19:55;9.00;1.00
11577;DHT22;5844;51.496;6.788;2023-04-15T00:22:21;8.90;1.00
11577;DHT22;5844;51.496;6.788;2023-04-15T00:24:47;8.60;1.00
11577;DHT22;5844;51.496;6.788;2023-04-15T00:27:12;8.90;1.00
11577;DHT22;5844;51.496;6.788;2023-04-15T00:29:38;8.60;1.00
11577;DHT22;5844;51.496;6.788;2023-04-15T00:32:04;8.70;1.00
11577;DHT22;5844;51.496;6.788;2023-04-15T00:34:30;8.50;1.00
11577;DHT22;5844;51.496;6.788;2023-04-15T00:36:55;8.60;1.00
11577;DHT22;5844;51.496;6.788;2023-04-15T00:39:21;8.50;1.00
11577;DHT22;5844;51.496;6.788;2023-04-15T00:41:47;8.40;1.00
11577;DHT22;5844;51.496;6.788;2023-04-15T00:44:13;8.40;1.00
11577;DHT22;5844;51.496;6.788;2023-04-15T00:46:39;8.60;1.00
11577;DHT22;5844;51.496;6.788;2023-04-15T00:49:06;8.40;1.00
11577;DHT22;5844;51.496;6.788;2023-04-15T00:51:33;8.30;1.00
11577;DHT22;5844;51.496;6.788;2023-04-15T00:54:01;8.30;1.00
11577;DHT22;5844;51.496;6.788;2023-04-15T00:56:28;8.20;1.00
11577;DHT22;5844;51.496;6.788;2023-04-15T00:58:53;8.20;1.00
11577;DHT22;5844;51.496;6.788;2023-04-15T01:01:23;8.10;1.00
11577;DHT22;5844;51.496;6.788;2023-04-15T01:03:50;8.00;1.00
11577;DHT22;5844;51.496;6.788;2023-04-15T01:06:16;8.00;1.00
11577;DHT22;5844;51.496;6.788;2023-04-15T01:08:43;8.00;1.00
11577;DHT22;5844;51.496;6.788;2023-04-15T01:11:09;8.00;1.00
11577;DHT22;5844;51.496;6.788;2023-04-15T01:13:37;8.00;1.00
11577;DHT22;5844;51.496;6.788;2023-04-15T01:16:03;8.00;1.00
11577;DHT22;5844;51.496;6.788;2023-04-15T01:18:29;8.00;1.00
11577;DHT22;5844;51.496;6.788;2023-04-15T01:20:55;8.00;1.00
11577;DHT22;5844;51.496;6.788;2023-04-15T01:23:21;8.20;1.00
11577;DHT22;5844;51.496;6.788;2023-04-15T01:25:48;8.50;1.00
11577;DHT22;5844;51.496;6.788;2023-04-15T01:28:15;8.10;1.00
11577;DHT22;5844;51.496;6.788;2023-04-15T01:30:41;7.90;1.00
11577;DHT22;5844;51.496;6.788;2023-04-15T01:33:07;7.90;1.00
11577;DHT22;5844;51.496;6.788;2023-04-15T01:35:33;8.10;1.00
11577;DHT22;5844;51.496;6.788;2023-04-15T01:38:04;8.70;1.00
11577;DHT22;5844;51.496;6.788;2023-04-15T01:40:31;8.60;1.00
11577;DHT22;5844;51.496;6.788;2023-04-15T01:42:56;7.70;1.00
11577;DHT22;5844;51.496;6.788;2023-04-15T01:45:22;8.00;1.00
11577;DHT22;5844;51.496;6.788;2023-04-15T01:47:48;7.80;1.00
11577;DHT22;5844;51.496;6.788;2023-04-15T01:50:13;7.90;1.00
11577;DHT22;5844;51.496;6.788;2023-04-15T01:52:40;7.80;1.00
11577;DHT22;5844;51.496;6.788;2023-04-15T01:55:06;7.70;1.00
11577;DHT22;5844;51.496;6.788;2023-04-15T01:57:33;7.70;1.00
11577;DHT22;5844;51.496;6.788;2023-04-15T01:59:58;7.70;1.00
11577;DHT22;5844;51.496;6.788;2023-04-15T02:02:24;7.60;1.00
11577;DHT22;5844;51.496;6.788;2023-04-15T02:04:50;7.80;1.00
11577;DHT22;5844;51.496;6.788;2023-04-15T02:07:15;7.70;1.00
11577;DHT22;5844;51.496;6.788;2023-04-15T02:09:42;8.00;1.00
11577;DHT22;5844;51.496;6.788;2023-04-15T02:12:08;7.60;1.00
11577;DHT22;5844;51.496;6.788;2023-04-15T02:14:34;7.70;1.00
11577;DHT22;5844;51.496;6.788;2023-04-15T02:16:59;7.60;1.00
11577;DHT22;5844;51.496;6.788;2023-04-15T02:19:32;7.60;1.00
11577;DHT22;5844;51.496;6.788;2023-04-15T02:21:57;7.60;1.00
11577;DHT22;5844;51.496;6.788;2023-04-15T02:24:25;7.90;1.00
11577;DHT22;5844;51.496;6.788;2023-04-15T02:26:50;7.50;1.00
11577;DHT22;5844;51.496;6.788;2023-04-15T02:29:16;7.80;1.00
11577;DHT22;5844;51.496;6.788;2023-04-15T02:31:42;8.30;1.00
11577;DHT22;5844;51.496;6.788;2023-04-15T02:34:08;8.10;1.00
11577;DHT22;5844;51.496;6.788;2023-04-15T02:36:33;7.50;1.00
11577;DHT22;5844;51.496;6.788;2023-04-15T02:38:59;7.40;1.00
11577;DHT22;5844;51.496;6.788;2023-04-15T02:41:25;7.50;1.00
11577;DHT22;5844;51.496;6.788;2023-04-15T02:43:53;7.40;1.00
11577;DHT22;5844;51.496;6.788;2023-04-15T02:46:18;7.70;1.00
11577;DHT22;5844;51.496;6.788;2023-04-15T02:48:44;7.50;1.00
11577;DHT22;5844;51.496;6.788;2023-04-15T02:51:20;7.20;1.00
11577;DHT22;5844;51.496;6.788;2023-04-15T02:53:47;7.20;1.00
11577;DHT22;5844;51.496;6.788;2023-04-15T02:56:14;7.10;1.00
11577;DHT22;5844;51.496;6.788;2023-04-15T02:58:40;7.10;1.00
11577;DHT22;5844;51.496;6.788;2023-04-15T03:01:06;8.40;1.00
11577;DHT22;5844;51.496;6.788;2023-04-15T03:03:33;7.10;1.00
11577;DHT22;5844;51.496;6.788;2023-04-15T03:05:59;7.10;1.00
11577;DHT22;5844;51.496;6.788;2023-04-15T03:08:25;7.20;1.00
11577;DHT22;5844;51.496;6.788;2023-04-15T03:10:51;7.60;1.00
11577;DHT22;5844;51.496;6.788;2023-04-15T03:13:18;7.10;1.00
11577;DHT22;5844;51.496;6.788;2023-04-15T03:15:47;7.20;1.00
11577;DHT22;5844;51.496;6.788;2023-04-15T03:18:13;7.10;1.00
11577;DHT22;5844;51.496;6.788;2023-04-15T03:20:38;8.20;1.00
11577;DHT22;5844;51.496;6.788;2023-04-15T03:23:04;7.60;1.00
11577;DHT22;5844;51.496;6.788;2023-04-15T03:25:30;7.00;1.00
11577;DHT22;5844;51.496;6.788;2023-04-15T03:27:55;7.00;1.00
11577;DHT22;5844;51.496;6.788;2023-04-15T03:30:21;7.10;1.00
11577;DHT22;5844;51.496;6.788;2023-04-15T03:32:47;7.00;1.00
11577;DHT22;5844;51.496;6.788;2023-04-15T03:35:12;7.00;1.00
11577;DHT22;5844;51.496;6.788;2023-04-15T03:37:38;7.00;1.00
11577;DHT22;5844;51.496;6.788;2023-04-15T03:40:04;7.10;1.00
11577;DHT22;5844;51.496;6.788;2023-04-15T03:42:30;6.90;1.00
11577;DHT22;5844;51.496;6.788;2023-04-15T03:44:55;7.10;1.00
11577;DHT22;5844;51.496;6.788;2023-04-15T03:47:21;6.80;1.00
11577;DHT22;5844;51.496;6.788;2023-04-15T03:49:47;6.80;1.00
11577;DHT22;5844;51.496;6.788;2023-04-15T03:52:12;7.70;1.00
11577;DHT22;5844;51.496;6.788;2023-04-15T03:54:38;7.00;1.00
11577;DHT22;5844;51.496;6.788;2023-04-15T03:57:04;6.90;1.00
11577;DHT22;5844;51.496;6.788;2023-04-15T03:59:30;6.90;1.00
11577;DHT22;5844;51.496;6.788;2023-04-15T04:01:55;6.90;1.00
11577;DHT22;5844;51.496;6.788;2023-04-15T04:04:21;6.90;1.00
11577;DHT22;5844;51.496;6.788;2023-04-15T04:06:47;7.20;1.00
11577;DHT22;5844;51.496;6.788;2023-04-15T04:09:12;7.10;1.00
11577;DHT22;5844;51.496;6.788;2023-04-15T04:11:38;7.30;1.00
11577;DHT22;5844;51.496;6.788;2023-04-15T04:14:03;7.20;1.00
11577;DHT22;5844;51.496;6.788;2023-04-15T04:16:29;6.90;1.00
11577;DHT22;5844;51.496;6.788;2023-04-15T04:18:54;6.90;1.00
11577;DHT22;5844;51.496;6.788;2023-04-15T04:21:20;7.10;1.00
11577;DHT22;5844;51.496;6.788;2023-04-15T04:23:46;6.90;1.00
11577;DHT22;5844;51.496;6.788;2023-04-15T04:26:12;7.30;1.00
11577;DHT22;5844;51.496;6.788;2023-04-15T04:28:37;6.90;1.00
11577;DHT22;5844;51.496;6.788;2023-04-15T04:31:05;6.90;1.00
11577;DHT22;5844;51.496;6.788;2023-04-15T04:33:32;6.80;1.00
11577;DHT22;5844;51.496;6.788;2023-04-15T04:35:57;6.90;1.00
11577;DHT22;5844;51.496;6.788;2023-04-15T04:38:24;6.90;1.00
11577;DHT22;5844;51.496;6.788;2023-04-15T04:40:50;6.90;1.00
11577;DHT22;5844;51.496;6.788;2023-04-15T04:43:15;6.80;1.00
11577;DHT22;5844;51.496;6.788;2023-04-15T04:45:41;7.30;1.00
11577;DHT22;5844;51.496;6.788;2023-04-15T04:48:07;7.50;1.00
11577;DHT22;5844;51.496;6.788;2023-04-15T04:50:34;7.30;1.00
11577;DHT22;5844;51.496;6.788;2023-04-15T04:53:00;6.70;1.00
11577;DHT22;5844;51.496;6.788;2023-04-15T04:55:26;6.60;1.00
11577;DHT22;5844;51.496;6.788;2023-04-15T04:57:52;6.90;1.00
11577;DHT22;5844;51.496;6.788;2023-04-15T05:00:18;6.70;1.00
11577;DHT22;5844;51.496;6.788;2023-04-15T05:02:44;6.60;1.00
11577;DHT22;5844;51.496;6.788;2023-04-15T05:05:09;7.60;1.00
11577;DHT22;5844;51.496;6.788;2023-04-15T05:07:36;6.80;1.00
11577;DHT22;5844;51.496;6.788;2023-04-15T05:10:03;7.20;1.00
11577;DHT22;5844;51.496;6.788;2023-04-15T05:12:28;6.70;1.00
11577;DHT22;5844;51.496;6.788;2023-04-15T05:14:54;6.70;1.00
11577;DHT22;5844;51.496;6.788;2023-04-15T05:17:20;6.80;1.00
11577;DHT22;5844;51.496;6.788;2023-04-15T05:19:46;8.00;1.00
11577;DHT22;5844;51.496;6.788;2023-04-15T05:22:11;6.80;1.00
11577;DHT22;5844;51.496;6.788;2023-04-15T05:24:37;7.30;1.00
11577;DHT22;5844;51.496;6.788;2023-04-15T05:27:03;7.00;1.00
11577;DHT22;5844;51.496;6.788;2023-04-15T05:29:29;7.70;1.00
11577;DHT22;5844;51.496;6.788;2023-04-15T05:31:55;7.00;1.00
11577;DHT22;5844;51.496;6.788;2023-04-15T05:34:21;7.00;1.00
11577;DHT22;5844;51.496;6.788;2023-04-15T05:36:46;7.50;1.00
11577;DHT22;5844;51.496;6.788;2023-04-15T05:39:12;7.20;1.00
11577;DHT22;5844;51.496;6.788;2023-04-15T05:41:38;7.50;1.00
11577;DHT22;5844;51.496;6.788;2023-04-15T05:44:03;7.60;1.00
11577;DHT22;5844;51.496;6.788;2023-04-15T05:46:29;7.30;1.00
11577;DHT22;5844;51.496;6.788;2023-04-15T05:48:55;7.40;1.00
11577;DHT22;5844;51.496;6.788;2023-04-15T05:51:21;7.50;1.00
11577;DHT22;5844;51.496;6.788;2023-04-15T05:53:46;8.90;1.00
11577;DHT22;5844;51.496;6.788;2023-04-15T05:56:12;7.50;1.00
11577;DHT22;5844;51.496;6.788;2023-04-15T05:58:37;7.80;1.00
11577;DHT22;5844;51.496;6.788;2023-04-15T06:01:03;7.70;1.00
11577;DHT22;5844;51.496;6.788;2023-04-15T06:03:30;7.80;1.00
11577;DHT22;5844;51.496;6.788;2023-04-15T06:05:55;7.90;1.00
11577;DHT22;5844;51.496;6.788;2023-04-15T06:08:21;8.00;1.00
11577;DHT22;5844;51.496;6.788;2023-04-15T06:10:46;8.10;1.00
11577;DHT22;5844;51.496;6.788;2023-04-15T06:13:12;8.40;1.00
11577;DHT22;5844;51.496;6.788;2023-04-15T06:15:38;8.20;1.00
11577;DHT22;5844;51.496;6.788;2023-04-15T06:18:04;9.00;1.00
11577;DHT22;5844;51.496;6.788;2023-04-15T06:20:29;8.60;1.00
11577;DHT22;5844;51.496;6.788;2023-04-15T06:22:56;8.60;1.00
11577;DHT22;5844;51.496;6.788;2023-04-15T06:25:21;8.60;1.00
11577;DHT22;5844;51.496;6.788;2023-04-15T06:27:47;8.80;1.00
11577;DHT22;5844;51.496;6.788;2023-04-15T06:30:13;8.90;1.00
11577;DHT22;5844;51.496;6.788;2023-04-15T06:32:39;9.00;1.00
11577;DHT22;5844;51.496;6.788;2023-04-15T06:35:04;9.10;1.00
11577;DHT22;5844;51.496;6.788;2023-04-15T06:37:30;9.30;1.00
11577;DHT22;5844;51.496;6.788;2023-04-15T06:39:57;9.50;1.00
11577;DHT22;5844;51.496;6.788;2023-04-15T06:42:22;9.70;1.00
11577;DHT22;5844;51.496;6.788;2023-04-15T06:44:48;9.80;1.00
11577;DHT22;5844;51.496;6.788;2023-04-15T06:47:14;10.00;1.00
11577;DHT22;5844;51.496;6.788;2023-04-15T06:49:40;10.10;1.00
11577;DHT22;5844;51.496;6.788;2023-04-15T06:52:07;10.20;1.00
11577;DHT22;5844;51.496;6.788;2023-04-15T06:54:33;10.40;1.00
11577;DHT22;5844;51.496;6.788;2023-04-15T06:56:59;10.60;1.00
11577;DHT22;5844;51.496;6.788;2023-04-15T06:59:24;10.80;1.00
11577;DHT22;5844;51.496;6.788;2023-04-15T07:01:51;11.00;1.00
11577;DHT22;5844;51.496;6.788;2023-04-15T07:04:17;11.00;1.00
11577;DHT22;5844;51.496;6.788;2023-04-15T07:06:43;11.10;1.00
11577;DHT22;5844;51.496;6.788;2023-04-15T07:09:09;11.10;1.00
11577;DHT22;5844;51.496;6.788;2023-04-15T07:11:35;11.00;1.00
11577;DHT22;5844;51.496;6.788;2023-04-15T07:14:01;11.20;1.00
11577;DHT22;5844;51.496;6.788;2023-04-15T07:16:26;11.30;1.00
11577;DHT22;5844;51.496;6.788;2023-04-15T07:18:52;11.30;1.00
11577;DHT22;5844;51.496;6.788;2023-04-15T07:21:18;11.50;1.00
11577;DHT22;5844;51.496;6.788;2023-04-15T07:23:44;11.70;1.00
11577;DHT22;5844;51.496;6.788;2023-04-15T07:26:09;11.70;1.00
11577;DHT22;5844;51.496;6.788;2023-04-15T07:28:35;11.80;1.00
11577;DHT22;5844;51.496;6.788;2023-04-15T07:31:01;11.80;1.00
11577;DHT22;5844;51.496;6.788;2023-04-15T07:33:26;11.90;1.00
11577;DHT22;5844;51.496;6.788;2023-04-15T07:35:52;11.90;1.00
11577;DHT22;5844;51.496;6.788;2023-04-15T07:38:18;11.90;1.00
11577;DHT22;5844;51.496;6.788;2023-04-15T07:40:43;12.00;1.00
11577;DHT22;5844;51.496;6.788;2023-04-15T07:43:09;11.90;1.00
11577;DHT22;5844;51.496;6.788;2023-04-15T07:45:35;12.00;1.00
11577;DHT22;5844;51.496;6.788;2023-04-15T07:48:01;12.00;1.00
11577;DHT22;5844;51.496;6.788;2023-04-15T07:50:27;12.20;1.00
11577;DHT22;5844;51.496;6.788;2023-04-15T07:52:53;12.10;1.00
11577;DHT22;5844;51.496;6.788;2023-04-15T07:55:19;12.10;1.00
11577;DHT22;5844;51.496;6.788;2023-04-15T07:57:47;12.10;1.00
11577;DHT22;5844;51.496;6.788;2023-04-15T08:00:14;12.10;1.00
11577;DHT22;5844;51.496;6.788;2023-04-15T08:02:42;12.10;1.00
11577;DHT22;5844;51.496;6.788;2023-04-15T08:05:09;12.20;1.00
11577;DHT22;5844;51.496;6.788;2023-04-15T08:07:36;12.30;1.00
11577;DHT22;5844;51.496;6.788;2023-04-15T08:10:02;12.40;1.00
11577;DHT22;5844;51.496;6.788;2023-04-15T08:12:28;12.40;1.00
11577;DHT22;5844;51.496;6.788;2023-04-15T08:14:54;12.60;1.00
11577;DHT22;5844;51.496;6.788;2023-04-15T08:17:20;12.80;1.00
11577;DHT22;5844;51.496;6.788;2023-04-15T08:19:46;13.00;1.00
11577;DHT22;5844;51.496;6.788;2023-04-15T08:22:13;13.10;1.00
11577;DHT22;5844;51.496;6.788;2023-04-15T08:24:39;13.20;1.00
11577;DHT22;5844;51.496;6.788;2023-04-15T08:27:04;13.30;1.00
11577;DHT22;5844;51.496;6.788;2023-04-15T08:29:33;13.50;1.00
11577;DHT22;5844;51.496;6.788;2023-04-15T08:32:00;13.60;1.00
11577;DHT22;5844;51.496;6.788;2023-04-15T08:34:26;13.80;1.00
11577;DHT22;5844;51.496;6.788;2023-04-15T08:36:52;13.90;1.00
11577;DHT22;5844;51.496;6.788;2023-04-15T08:39:17;13.80;1.00
11577;DHT22;5844;51.496;6.788;2023-04-15T08:42:01;13.80;1.00
11577;DHT22;5844;51.496;6.788;2023-04-15T08:44:33;13.80;1.00
11577;DHT22;5844;51.496;6.788;2023-04-15T08:47:01;13.80;1.00
11577;DHT22;5844;51.496;6.788;2023-04-15T08:49:28;13.90;1.00
11577;DHT22;5844;51.496;6.788;2023-04-15T08:51:54;14.00;1.00
11577;DHT22;5844;51.496;6.788;2023-04-15T08:54:21;13.90;1.00
11577;DHT22;5844;51.496;6.788;2023-04-15T08:56:47;14.00;1.00
11577;DHT22;5844;51.496;6.788;2023-04-15T08:59:14;14.20;1.00
11577;DHT22;5844;51.496;6.788;2023-04-15T09:01:41;14.30;1.00
11577;DHT22;5844;51.496;6.788;2023-04-15T09:04:07;14.50;1.00
11577;DHT22;5844;51.496;6.788;2023-04-15T09:06:33;14.60;1.00
11577;DHT22;5844;51.496;6.788;2023-04-15T09:08:59;14.90;1.00
11577;DHT22;5844;51.496;6.788;2023-04-15T09:11:25;15.40;1.00
11577;DHT22;5844;51.496;6.788;2023-04-15T09:13:51;15.60;1.00
11577;DHT22;5844;51.496;6.788;2023-04-15T09:16:17;16.00;1.00
11577;DHT22;5844;51.496;6.788;2023-04-15T09:18:43;16.10;1.00
11577;DHT22;5844;51.496;6.788;2023-04-15T09:21:11;16.20;1.00
11577;DHT22;5844;51.496;6.788;2023-04-15T09:23:38;16.00;1.00
11577;DHT22;5844;51.496;6.788;2023-04-15T09:26:04;15.60;1.00
11577;DHT22;5844;51.496;6.788;2023-04-15T09:28:31;15.40;1.00
11577;DHT22;5844;51.496;6.788;2023-04-15T09:31:00;15.30;1.00
11577;DHT22;5844;51.496;6.788;2023-04-15T09:33:28;15.40;1.00
11577;DHT22;5844;51.496;6.788;2023-04-15T09:35:59;15.80;1.00
11577;DHT22;5844;51.496;6.788;2023-04-15T09:38:26;15.70;1.00
11577;DHT22;5844;51.496;6.788;2023-04-15T09:40:52;15.50;1.00
11577;DHT22;5844;51.496;6.788;2023-04-15T09:43:18;15.50;1.00
11577;DHT22;5844;51.496;6.788;2023-04-15T09:45:52;15.40;1.00
11577;DHT22;5844;51.496;6.788;2023-04-15T09:48:19;15.50;1.00
11577;DHT22;5844;51.496;6.788;2023-04-15T09:50:48;15.70;1.00
11577;DHT22;5844;51.496;6.788;2023-04-15T09:53:19;15.70;1.00
11577;DHT22;5844;51.496;6.788;2023-04-15T09:55:49;15.70;1.00
11577;DHT22;5844;51.496;6.788;2023-04-15T09:58:20;16.00;1.00
11577;DHT22;5844;51.496;6.788;2023-04-15T10:00:47;16.20;1.00
11577;DHT22;5844;51.496;6.788;2023-04-15T10:03:34;16.60;1.00
11577;DHT22;5844;51.496;6.788;2023-04-15T10:06:01;17.00;1.00
11577;DHT22;5844;51.496;6.788;2023-04-15T10:08:32;16.90;1.00
11577;DHT22;5844;51.496;6.788;2023-04-15T10:11:02;16.40;1.00
11577;DHT22;5844;51.496;6.788;2023-04-15T10:13:30;16.50;1.00
11577;DHT22;5844;51.496;6.788;2023-04-15T10:18:34;15.90;1.00
11577;DHT22;5844;51.496;6.788;2023-04-15T10:21:01;15.60;1.00
11577;DHT22;5844;51.496;6.788;2023-04-15T10:23:26;15.30;1.00
11577;DHT22;5844;51.496;6.788;2023-04-15T10:25:53;15.20;1.00
11577;DHT22;5844;51.496;6.788;2023-04-15T10:28:20;15.10;1.00
11577;DHT22;5844;51.496;6.788;2023-04-15T10:30:47;14.90;1.00
11577;DHT22;5844;51.496;6.788;2023-04-15T10:33:16;14.40;1.00
11577;DHT22;5844;51.496;6.788;2023-04-15T10:35:43;14.30;1.00
11577;DHT22;5844;51.496;6.788;2023-04-15T10:38:35;14.40;1.00
11577;DHT22;5844;51.496;6.788;2023-04-15T10:43:48;14.90;1.00
11577;DHT22;5844;51.496;6.788;2023-04-15T10:46:46;15.10;1.00
11577;DHT22;5844;51.496;6.788;2023-04-15T10:49:24;15.20;1.00
11577;DHT22;5844;51.496;6.788;2023-04-15T10:51:57;15.20;1.00
11577;DHT22;5844;51.496;6.788;2023-04-15T10:59:36;14.50;1.00
11577;DHT22;5844;51.496;6.788;2023-04-15T11:02:05;14.20;1.00
11577;DHT22;5844;51.496;6.788;2023-04-15T11:07:36;14.30;1.00
11577;DHT22;5844;51.496;6.788;2023-04-15T11:12:50;14.30;1.00
11577;DHT22;5844;51.496;6.788;2023-04-15T11:15:43;14.00;1.00
11577;DHT22;5844;51.496;6.788;2023-04-15T11:18:21;13.90;1.00
11577;DHT22;5844;51.496;6.788;2023-04-15T11:20:49;13.70;1.00
11577;DHT22;5844;51.496;6.788;2023-04-15T11:23:30;13.80;1.00
11577;DHT22;5844;51.496;6.788;2023-04-15T11:25:57;13.90;1.00
11577;DHT22;5844;51.496;6.788;2023-04-15T11:28:26;14.60;1.00
11577;DHT22;5844;51.496;6.788;2023-04-15T11:30:52;15.50;1.00
11577;DHT22;5844;51.496;6.788;2023-04-15T11:33:20;16.50;1.00
11577;DHT22;5844;51.496;6.788;2023-04-15T11:35:46;17.00;1.00
11577;DHT22;5844;51.496;6.788;2023-04-15T11:38:13;16.60;1.00
11577;DHT22;5844;51.496;6.788;2023-04-15T11:40:40;16.20;1.00
11577;DHT22;5844;51.496;6.788;2023-04-15T11:43:11;15.70;1.00
11577;DHT22;5844;51.496;6.788;2023-04-15T11:45:48;15.20;1.00
11577;DHT22;5844;51.496;6.788;2023-04-15T11:48:14;15.00;1.00
11577;DHT22;5844;51.496;6.788;2023-04-15T11:50:40;15.10;1.00
11577;DHT22;5844;51.496;6.788;2023-04-15T11:53:08;15.50;1.00
11577;DHT22;5844;51.496;6.788;2023-04-15T11:55:48;16.30;1.00
11577;DHT22;5844;51.496;6.788;2023-04-15T11:58:17;16.30;1.00
11577;DHT22;5844;51.496;6.788;2023-04-15T12:00:55;15.80;1.00
11577;DHT22;5844;51.496;6.788;2023-04-15T12:03:36;15.70;1.00
11577;DHT22;5844;51.496;6.788;2023-04-15T12:13:57;14.40;1.00
11577;DHT22;5844;51.496;6.788;2023-04-15T12:16:27;14.50;1.00
11577;DHT22;5844;51.496;6.788;2023-04-15T12:18:57;14.70;1.00
11577;DHT22;5844;51.496;6.788;2023-04-15T12:21:26;14.60;1.00
11577;DHT22;5844;51.496;6.788;2023-04-15T12:23:54;14.60;1.00
11577;DHT22;5844;51.496;6.788;2023-04-15T12:29:06;14.60;1.00
11577;DHT22;5844;51.496;6.788;2023-04-15T12:31:36;14.60;1.00
11577;DHT22;5844;51.496;6.788;2023-04-15T12:34:06;14.50;1.00
11577;DHT22;5844;51.496;6.788;2023-04-15T12:36:32;14.40;1.00
11577;DHT22;5844;51.496;6.788;2023-04-15T12:39:04;14.30;1.00
11577;DHT22;5844;51.496;6.788;2023-04-15T12:41:31;14.40;1.00
11577;DHT22;5844;51.496;6.788;2023-04-15T12:43:57;14.70;1.00
11577;DHT22;5844;51.496;6.788;2023-04-15T12:46:22;14.90;1.00
11577;DHT22;5844;51.496;6.788;2023-04-15T12:48:49;14.90;1.00
11577;DHT22;5844;51.496;6.788;2023-04-15T12:51:15;14.90;1.00
11577;DHT22;5844;51.496;6.788;2023-04-15T12:53:40;15.00;1.00
11577;DHT22;5844;51.496;6.788;2023-04-15T12:56:06;15.10;1.00
11577;DHT22;5844;51.496;6.788;2023-04-15T12:58:32;14.90;1.00
11577;DHT22;5844;51.496;6.788;2023-04-15T13:00:58;14.50;1.00
11577;DHT22;5844;51.496;6.788;2023-04-15T13:03:23;14.10;1.00
11577;DHT22;5844;51.496;6.788;2023-04-15T13:05:49;13.80;1.00
11577;DHT22;5844;51.496;6.788;2023-04-15T13:08:15;13.50;1.00
11577;DHT22;5844;51.496;6.788;2023-04-15T13:10:41;13.10;1.00
11577;DHT22;5844;51.496;6.788;2023-04-15T13:13:07;13.20;1.00
11577;DHT22;5844;51.496;6.788;2023-04-15T13:15:33;13.40;1.00
11577;DHT22;5844;51.496;6.788;2023-04-15T13:17:59;13.60;1.00
11577;DHT22;5844;51.496;6.788;2023-04-15T13:20:25;13.70;1.00
11577;DHT22;5844;51.496;6.788;2023-04-15T13:22:54;13.70;1.00
11577;DHT22;5844;51.496;6.788;2023-04-15T13:25:20;13.70;1.00
11577;DHT22;5844;51.496;6.788;2023-04-15T13:27:45;13.50;1.00
11577;DHT22;5844;51.496;6.788;2023-04-15T13:30:11;13.40;1.00
11577;DHT22;5844;51.496;6.788;2023-04-15T13:32:37;13.10;1.00
11577;DHT22;5844;51.496;6.788;2023-04-15T13:35:03;13.00;1.00
11577;DHT22;5844;51.496;6.788;2023-04-15T13:37:30;13.00;1.00
11577;DHT22;5844;51.496;6.788;2023-04-15T13:39:56;12.80;1.00
11577;DHT22;5844;51.496;6.788;2023-04-15T13:42:22;12.60;1.00
11577;DHT22;5844;51.496;6.788;2023-04-15T13:44:51;12.50;1.00
11577;DHT22;5844;51.496;6.788;2023-04-15T13:47:18;12.50;1.00
11577;DHT22;5844;51.496;6.788;2023-04-15T13:49:44;12.50;1.00
11577;DHT22;5844;51.496;6.788;2023-04-15T13:52:11;12.40;1.00
11577;DHT22;5844;51.496;6.788;2023-04-15T13:54:36;12.40;1.00
11577;DHT22;5844;51.496;6.788;2023-04-15T13:57:02;12.50;1.00
11577;DHT22;5844;51.496;6.788;2023-04-15T13:59:28;12.50;1.00
11577;DHT22;5844;51.496;6.788;2023-04-15T14:01:53;12.50;1.00
11577;DHT22;5844;51.496;6.788;2023-04-15T14:04:19;12.40;1.00
11577;DHT22;5844;51.496;6.788;2023-04-15T14:06:45;12.40;1.00
11577;DHT22;5844;51.496;6.788;2023-04-15T14:09:10;12.50;1.00
11577;DHT22;5844;51.496;6.788;2023-04-15T14:11:39;12.60;1.00
11577;DHT22;5844;51.496;6.788;2023-04-15T14:14:05;12.60;1.00
11577;DHT22;5844;51.496;6.788;2023-04-15T14:16:34;12.60;1.00
11577;DHT22;5844;51.496;6.788;2023-04-15T14:19:01;12.60;1.00
11577;DHT22;5844;51.496;6.788;2023-04-15T14:21:26;12.80;1.00
11577;DHT22;5844;51.496;6.788;2023-04-15T14:23:52;12.80;1.00
11577;DHT22;5844;51.496;6.788;2023-04-15T14:26:18;12.80;1.00
11577;DHT22;5844;51.496;6.788;2023-04-15T14:28:44;12.80;1.00
